sensor_id;sensor_type;location;lat;lon;timestamp;P1;durP1;ratioP1;P2;durP2;ratioP2
24206;SDS011;12351;52.284;9.160;2022-07-29T00:02:12;6.20;;;1.10;;
24206;SDS011;12351;52.284;9.160;2022-07-29T00:04:47;5.27;;;1.30;;
24206;SDS011;12351;52.284;9.160;2022-07-29T00:07:22;2.87;;;1.00;;
24206;SDS011;12351;52.284;9.160;2022-07-29T00:09:57;5.70;;;1.20;;
24206;SDS011;12351;52.284;9.160;2022-07-29T00:12:30;6.73;;;1.40;;
24206;SDS011;12351;52.284;9.160;2022-07-29T00:15:04;4.23;;;1.10;;
24206;SDS011;12351;52.284;9.160;2022-07-29T00:17:38;5.37;;;1.23;;
24206;SDS011;12351;52.284;9.160;2022-07-29T00:20:16;3.93;;;1.27;;
24206;SDS011;12351;52.284;9.160;2022-07-29T00:22:46;6.13;;;1.37;;
24206;SDS011;12351;52.284;9.160;2022-07-29T00:25:22;4.27;;;1.37;;
24206;SDS011;12351;52.284;9.160;2022-07-29T00:27:58;2.37;;;1.17;;
24206;SDS011;12351;52.284;9.160;2022-07-29T00:33:02;4.17;;;1.17;;
24206;SDS011;12351;52.284;9.160;2022-07-29T00:35:35;4.17;;;1.30;;
24206;SDS011;12351;52.284;9.160;2022-07-29T00:38:10;4.10;;;1.03;;
24206;SDS011;12351;52.284;9.160;2022-07-29T00:40:47;5.07;;;1.17;;
24206;SDS011;12351;52.284;9.160;2022-07-29T00:43:22;4.00;;;1.27;;
24206;SDS011;12351;52.284;9.160;2022-07-29T00:45:56;5.07;;;1.20;;
24206;SDS011;12351;52.284;9.160;2022-07-29T00:48:30;4.23;;;1.40;;
24206;SDS011;12351;52.284;9.160;2022-07-29T00:51:04;3.07;;;1.20;;
24206;SDS011;12351;52.284;9.160;2022-07-29T00:53:38;2.57;;;1.10;;
24206;SDS011;12351;52.284;9.160;2022-07-29T00:56:14;5.33;;;1.13;;
24206;SDS011;12351;52.284;9.160;2022-07-29T00:58:46;6.47;;;1.20;;
24206;SDS011;12351;52.284;9.160;2022-07-29T01:01:23;9.57;;;1.30;;
24206;SDS011;12351;52.284;9.160;2022-07-29T01:03:56;2.27;;;1.00;;
24206;SDS011;12351;52.284;9.160;2022-07-29T01:06:30;3.57;;;1.20;;
24206;SDS011;12351;52.284;9.160;2022-07-29T01:09:06;3.70;;;1.00;;
24206;SDS011;12351;52.284;9.160;2022-07-29T01:11:35;4.83;;;1.10;;
24206;SDS011;12351;52.284;9.160;2022-07-29T01:14:07;3.00;;;1.07;;
24206;SDS011;12351;52.284;9.160;2022-07-29T01:22:24;2.50;;;1.23;;
24206;SDS011;12351;52.284;9.160;2022-07-29T01:24:59;2.77;;;1.00;;
24206;SDS011;12351;52.284;9.160;2022-07-29T01:27:32;1.90;;;1.02;;
24206;SDS011;12351;52.284;9.160;2022-07-29T01:30:00;6.83;;;1.50;;
24206;SDS011;12351;52.284;9.160;2022-07-29T01:32:35;5.90;;;1.20;;
24206;SDS011;12351;52.284;9.160;2022-07-29T01:42:51;2.37;;;1.00;;
24206;SDS011;12351;52.284;9.160;2022-07-29T01:45:26;4.13;;;1.10;;
24206;SDS011;12351;52.284;9.160;2022-07-29T01:48:00;3.37;;;1.10;;
24206;SDS011;12351;52.284;9.160;2022-07-29T01:50:37;5.00;;;1.27;;
24206;SDS011;12351;52.284;9.160;2022-07-29T01:53:09;4.15;;;1.05;;
24206;SDS011;12351;52.284;9.160;2022-07-29T01:55:45;6.43;;;1.00;;
24206;SDS011;12351;52.284;9.160;2022-07-29T01:58:20;3.13;;;1.10;;
24206;SDS011;12351;52.284;9.160;2022-07-29T02:00:55;3.77;;;1.17;;
24206;SDS011;12351;52.284;9.160;2022-07-29T02:03:31;4.17;;;1.10;;
24206;SDS011;12351;52.284;9.160;2022-07-29T02:06:04;7.00;;;1.20;;
24206;SDS011;12351;52.284;9.160;2022-07-29T02:08:39;3.03;;;1.10;;
24206;SDS011;12351;52.284;9.160;2022-07-29T02:11:17;4.03;;;1.40;;
24206;SDS011;12351;52.284;9.160;2022-07-29T02:13:52;2.83;;;1.20;;
24206;SDS011;12351;52.284;9.160;2022-07-29T02:16:28;4.83;;;1.03;;
24206;SDS011;12351;52.284;9.160;2022-07-29T02:19:04;5.27;;;1.37;;
24206;SDS011;12351;52.284;9.160;2022-07-29T02:21:37;3.77;;;1.30;;
24206;SDS011;12351;52.284;9.160;2022-07-29T02:24:12;4.90;;;1.30;;
24206;SDS011;12351;52.284;9.160;2022-07-29T02:26:47;4.80;;;1.33;;
24206;SDS011;12351;52.284;9.160;2022-07-29T02:29:25;2.47;;;0.97;;
24206;SDS011;12351;52.284;9.160;2022-07-29T02:32:00;4.13;;;1.47;;
24206;SDS011;12351;52.284;9.160;2022-07-29T02:34:34;5.07;;;1.30;;
24206;SDS011;12351;52.284;9.160;2022-07-29T02:37:08;3.03;;;1.03;;
24206;SDS011;12351;52.284;9.160;2022-07-29T02:39:47;2.97;;;1.10;;
24206;SDS011;12351;52.284;9.160;2022-07-29T02:42:19;3.70;;;1.03;;
24206;SDS011;12351;52.284;9.160;2022-07-29T02:44:55;2.87;;;0.97;;
24206;SDS011;12351;52.284;9.160;2022-07-29T02:57:47;2.73;;;1.10;;
24206;SDS011;12351;52.284;9.160;2022-07-29T03:00:19;3.97;;;1.30;;
24206;SDS011;12351;52.284;9.160;2022-07-29T03:02:54;4.43;;;1.30;;
24206;SDS011;12351;52.284;9.160;2022-07-29T03:05:29;7.30;;;1.17;;
24206;SDS011;12351;52.284;9.160;2022-07-29T03:08:05;7.43;;;1.40;;
24206;SDS011;12351;52.284;9.160;2022-07-29T03:10:39;5.40;;;1.20;;
24206;SDS011;12351;52.284;9.160;2022-07-29T03:13:15;3.00;;;1.40;;
24206;SDS011;12351;52.284;9.160;2022-07-29T03:15:48;3.70;;;1.37;;
24206;SDS011;12351;52.284;9.160;2022-07-29T03:18:23;5.17;;;1.53;;
24206;SDS011;12351;52.284;9.160;2022-07-29T03:20:58;4.63;;;1.57;;
24206;SDS011;12351;52.284;9.160;2022-07-29T03:23:31;3.80;;;1.30;;
24206;SDS011;12351;52.284;9.160;2022-07-29T03:26:02;7.70;;;1.50;;
24206;SDS011;12351;52.284;9.160;2022-07-29T03:28:38;4.83;;;1.40;;
24206;SDS011;12351;52.284;9.160;2022-07-29T03:31:11;4.10;;;1.43;;
24206;SDS011;12351;52.284;9.160;2022-07-29T03:33:45;6.30;;;1.40;;
24206;SDS011;12351;52.284;9.160;2022-07-29T03:36:20;3.33;;;1.20;;
24206;SDS011;12351;52.284;9.160;2022-07-29T03:38:55;3.60;;;1.50;;
24206;SDS011;12351;52.284;9.160;2022-07-29T03:41:32;2.93;;;1.00;;
24206;SDS011;12351;52.284;9.160;2022-07-29T03:44:06;6.70;;;1.37;;
24206;SDS011;12351;52.284;9.160;2022-07-29T03:46:41;3.87;;;1.17;;
24206;SDS011;12351;52.284;9.160;2022-07-29T03:49:12;6.47;;;1.37;;
24206;SDS011;12351;52.284;9.160;2022-07-29T03:51:49;4.80;;;1.20;;
24206;SDS011;12351;52.284;9.160;2022-07-29T03:54:20;2.87;;;1.25;;
24206;SDS011;12351;52.284;9.160;2022-07-29T03:56:57;4.47;;;1.13;;
24206;SDS011;12351;52.284;9.160;2022-07-29T03:59:31;3.03;;;1.40;;
24206;SDS011;12351;52.284;9.160;2022-07-29T04:02:06;4.83;;;1.40;;
24206;SDS011;12351;52.284;9.160;2022-07-29T04:04:40;5.20;;;1.40;;
24206;SDS011;12351;52.284;9.160;2022-07-29T04:07:12;2.40;;;1.22;;
24206;SDS011;12351;52.284;9.160;2022-07-29T04:09:46;5.43;;;1.30;;
24206;SDS011;12351;52.284;9.160;2022-07-29T04:12:18;3.08;;;1.00;;
24206;SDS011;12351;52.284;9.160;2022-07-29T04:14:51;2.80;;;1.07;;
24206;SDS011;12351;52.284;9.160;2022-07-29T04:17:26;2.53;;;1.30;;
24206;SDS011;12351;52.284;9.160;2022-07-29T04:19:58;2.73;;;1.20;;
24206;SDS011;12351;52.284;9.160;2022-07-29T04:22:32;2.87;;;1.20;;
24206;SDS011;12351;52.284;9.160;2022-07-29T04:25:06;4.23;;;1.30;;
24206;SDS011;12351;52.284;9.160;2022-07-29T04:27:39;2.67;;;1.10;;
24206;SDS011;12351;52.284;9.160;2022-07-29T04:30:13;3.40;;;1.10;;
24206;SDS011;12351;52.284;9.160;2022-07-29T04:32:46;2.47;;;1.03;;
24206;SDS011;12351;52.284;9.160;2022-07-29T04:35:19;2.53;;;1.20;;
24206;SDS011;12351;52.284;9.160;2022-07-29T04:37:52;4.95;;;1.05;;
24206;SDS011;12351;52.284;9.160;2022-07-29T04:40:28;7.33;;;1.47;;
24206;SDS011;12351;52.284;9.160;2022-07-29T04:43:01;2.80;;;1.10;;
24206;SDS011;12351;52.284;9.160;2022-07-29T04:45:34;3.30;;;1.20;;
24206;SDS011;12351;52.284;9.160;2022-07-29T04:48:09;2.70;;;1.00;;
24206;SDS011;12351;52.284;9.160;2022-07-29T04:50:42;4.47;;;1.17;;
24206;SDS011;12351;52.284;9.160;2022-07-29T04:53:17;3.60;;;1.20;;
24206;SDS011;12351;52.284;9.160;2022-07-29T04:55:49;4.55;;;1.27;;
24206;SDS011;12351;52.284;9.160;2022-07-29T04:58:25;3.90;;;1.03;;
24206;SDS011;12351;52.284;9.160;2022-07-29T05:00:57;5.57;;;1.03;;
24206;SDS011;12351;52.284;9.160;2022-07-29T05:03:36;1.73;;;1.10;;
24206;SDS011;12351;52.284;9.160;2022-07-29T05:06:07;4.07;;;1.20;;
24206;SDS011;12351;52.284;9.160;2022-07-29T05:08:43;5.60;;;1.30;;
24206;SDS011;12351;52.284;9.160;2022-07-29T05:11:15;4.20;;;1.27;;
24206;SDS011;12351;52.284;9.160;2022-07-29T05:13:50;4.63;;;1.30;;
24206;SDS011;12351;52.284;9.160;2022-07-29T05:16:23;3.40;;;1.40;;
24206;SDS011;12351;52.284;9.160;2022-07-29T05:18:57;2.30;;;1.00;;
24206;SDS011;12351;52.284;9.160;2022-07-29T05:21:28;2.50;;;1.47;;
24206;SDS011;12351;52.284;9.160;2022-07-29T05:23:58;2.50;;;1.00;;
24206;SDS011;12351;52.284;9.160;2022-07-29T05:26:30;3.27;;;1.12;;
24206;SDS011;12351;52.284;9.160;2022-07-29T05:29:02;3.50;;;1.15;;
24206;SDS011;12351;52.284;9.160;2022-07-29T05:31:34;2.95;;;1.15;;
24206;SDS011;12351;52.284;9.160;2022-07-29T05:34:07;4.75;;;1.20;;
24206;SDS011;12351;52.284;9.160;2022-07-29T05:36:42;3.87;;;1.40;;
24206;SDS011;12351;52.284;9.160;2022-07-29T05:39:12;3.62;;;1.20;;
24206;SDS011;12351;52.284;9.160;2022-07-29T05:41:47;3.83;;;1.50;;
24206;SDS011;12351;52.284;9.160;2022-07-29T05:44:20;4.27;;;1.30;;
24206;SDS011;12351;52.284;9.160;2022-07-29T05:46:56;3.37;;;1.30;;
24206;SDS011;12351;52.284;9.160;2022-07-29T05:49:28;2.90;;;1.10;;
24206;SDS011;12351;52.284;9.160;2022-07-29T05:52:01;4.03;;;1.13;;
24206;SDS011;12351;52.284;9.160;2022-07-29T05:54:30;4.97;;;1.00;;
24206;SDS011;12351;52.284;9.160;2022-07-29T05:57:07;3.63;;;1.30;;
24206;SDS011;12351;52.284;9.160;2022-07-29T05:59:41;4.57;;;1.47;;
24206;SDS011;12351;52.284;9.160;2022-07-29T06:02:14;6.77;;;1.47;;
24206;SDS011;12351;52.284;9.160;2022-07-29T06:04:52;3.50;;;1.27;;
24206;SDS011;12351;52.284;9.160;2022-07-29T06:07:27;3.80;;;1.27;;
24206;SDS011;12351;52.284;9.160;2022-07-29T06:10:02;3.60;;;1.20;;
24206;SDS011;12351;52.284;9.160;2022-07-29T06:12:33;4.90;;;1.40;;
24206;SDS011;12351;52.284;9.160;2022-07-29T06:15:09;2.50;;;0.90;;
24206;SDS011;12351;52.284;9.160;2022-07-29T06:17:42;4.87;;;1.33;;
24206;SDS011;12351;52.284;9.160;2022-07-29T06:20:13;6.53;;;1.20;;
24206;SDS011;12351;52.284;9.160;2022-07-29T06:22:47;6.03;;;1.73;;
24206;SDS011;12351;52.284;9.160;2022-07-29T06:25:22;7.27;;;1.40;;
24206;SDS011;12351;52.284;9.160;2022-07-29T06:27:57;4.30;;;1.60;;
24206;SDS011;12351;52.284;9.160;2022-07-29T06:30:27;2.80;;;1.30;;
24206;SDS011;12351;52.284;9.160;2022-07-29T06:33:03;3.47;;;1.30;;
24206;SDS011;12351;52.284;9.160;2022-07-29T06:35:38;6.63;;;1.07;;
24206;SDS011;12351;52.284;9.160;2022-07-29T06:38:13;7.30;;;1.40;;
24206;SDS011;12351;52.284;9.160;2022-07-29T06:40:47;5.70;;;1.20;;
24206;SDS011;12351;52.284;9.160;2022-07-29T06:43:22;2.20;;;1.20;;
24206;SDS011;12351;52.284;9.160;2022-07-29T06:45:57;5.70;;;1.60;;
24206;SDS011;12351;52.284;9.160;2022-07-29T06:48:36;6.03;;;1.20;;
24206;SDS011;12351;52.284;9.160;2022-07-29T06:51:12;3.77;;;1.30;;
24206;SDS011;12351;52.284;9.160;2022-07-29T06:53:45;4.53;;;1.47;;
24206;SDS011;12351;52.284;9.160;2022-07-29T06:56:19;2.90;;;1.20;;
24206;SDS011;12351;52.284;9.160;2022-07-29T06:58:58;9.57;;;1.20;;
24206;SDS011;12351;52.284;9.160;2022-07-29T07:01:32;3.50;;;1.43;;
24206;SDS011;12351;52.284;9.160;2022-07-29T07:04:06;7.77;;;1.17;;
24206;SDS011;12351;52.284;9.160;2022-07-29T07:06:42;4.63;;;1.37;;
24206;SDS011;12351;52.284;9.160;2022-07-29T07:09:18;2.97;;;1.23;;
24206;SDS011;12351;52.284;9.160;2022-07-29T07:11:52;5.33;;;1.23;;
24206;SDS011;12351;52.284;9.160;2022-07-29T07:14:28;5.37;;;1.27;;
24206;SDS011;12351;52.284;9.160;2022-07-29T07:17:02;2.60;;;1.10;;
24206;SDS011;12351;52.284;9.160;2022-07-29T07:19:38;2.83;;;1.10;;
24206;SDS011;12351;52.284;9.160;2022-07-29T07:22:10;4.97;;;1.40;;
24206;SDS011;12351;52.284;9.160;2022-07-29T07:24:48;3.57;;;1.33;;
24206;SDS011;12351;52.284;9.160;2022-07-29T07:27:24;6.73;;;1.43;;
24206;SDS011;12351;52.284;9.160;2022-07-29T07:30:00;4.67;;;1.40;;
24206;SDS011;12351;52.284;9.160;2022-07-29T07:32:33;4.13;;;1.30;;
24206;SDS011;12351;52.284;9.160;2022-07-29T07:35:08;4.47;;;1.40;;
24206;SDS011;12351;52.284;9.160;2022-07-29T07:37:43;5.33;;;1.40;;
24206;SDS011;12351;52.284;9.160;2022-07-29T07:40:17;3.63;;;1.10;;
24206;SDS011;12351;52.284;9.160;2022-07-29T07:42:52;4.73;;;1.40;;
24206;SDS011;12351;52.284;9.160;2022-07-29T07:45:23;4.67;;;1.50;;
24206;SDS011;12351;52.284;9.160;2022-07-29T07:47:57;4.57;;;1.33;;
24206;SDS011;12351;52.284;9.160;2022-07-29T07:50:28;3.87;;;1.30;;
24206;SDS011;12351;52.284;9.160;2022-07-29T07:53:01;3.53;;;1.50;;
24206;SDS011;12351;52.284;9.160;2022-07-29T07:55:38;4.07;;;1.30;;
24206;SDS011;12351;52.284;9.160;2022-07-29T07:58:10;6.63;;;1.63;;
24206;SDS011;12351;52.284;9.160;2022-07-29T08:00:44;3.67;;;1.40;;
24206;SDS011;12351;52.284;9.160;2022-07-29T08:03:19;4.43;;;1.67;;
24206;SDS011;12351;52.284;9.160;2022-07-29T08:05:54;5.63;;;1.50;;
24206;SDS011;12351;52.284;9.160;2022-07-29T08:08:29;2.90;;;1.50;;
24206;SDS011;12351;52.284;9.160;2022-07-29T08:11:03;3.90;;;1.50;;
24206;SDS011;12351;52.284;9.160;2022-07-29T08:13:36;5.47;;;1.70;;
24206;SDS011;12351;52.284;9.160;2022-07-29T08:16:09;5.17;;;1.70;;
24206;SDS011;12351;52.284;9.160;2022-07-29T08:18:44;7.27;;;1.70;;
24206;SDS011;12351;52.284;9.160;2022-07-29T08:21:20;7.50;;;1.60;;
24206;SDS011;12351;52.284;9.160;2022-07-29T08:23:54;6.97;;;1.70;;
24206;SDS011;12351;52.284;9.160;2022-07-29T08:26:31;4.07;;;1.80;;
24206;SDS011;12351;52.284;9.160;2022-07-29T08:29:03;4.33;;;1.53;;
24206;SDS011;12351;52.284;9.160;2022-07-29T08:31:40;6.83;;;1.83;;
24206;SDS011;12351;52.284;9.160;2022-07-29T08:34:12;7.80;;;1.70;;
24206;SDS011;12351;52.284;9.160;2022-07-29T08:36:49;5.03;;;2.20;;
24206;SDS011;12351;52.284;9.160;2022-07-29T08:39:24;8.50;;;1.90;;
24206;SDS011;12351;52.284;9.160;2022-07-29T08:41:55;6.40;;;1.90;;
24206;SDS011;12351;52.284;9.160;2022-07-29T08:44:31;7.20;;;2.73;;
24206;SDS011;12351;52.284;9.160;2022-07-29T08:47:06;7.57;;;1.83;;
24206;SDS011;12351;52.284;9.160;2022-07-29T08:49:35;5.07;;;1.90;;
24206;SDS011;12351;52.284;9.160;2022-07-29T08:52:11;6.63;;;1.80;;
24206;SDS011;12351;52.284;9.160;2022-07-29T08:54:43;7.50;;;1.90;;
24206;SDS011;12351;52.284;9.160;2022-07-29T08:57:17;6.50;;;1.90;;
24206;SDS011;12351;52.284;9.160;2022-07-29T08:59:55;7.67;;;1.90;;
24206;SDS011;12351;52.284;9.160;2022-07-29T09:02:28;6.33;;;1.80;;
24206;SDS011;12351;52.284;9.160;2022-07-29T09:05:02;4.40;;;1.70;;
24206;SDS011;12351;52.284;9.160;2022-07-29T09:07:37;6.43;;;2.00;;
24206;SDS011;12351;52.284;9.160;2022-07-29T09:10:11;5.93;;;2.30;;
24206;SDS011;12351;52.284;9.160;2022-07-29T09:12:43;8.47;;;1.70;;
24206;SDS011;12351;52.284;9.160;2022-07-29T09:15:17;6.40;;;2.00;;
24206;SDS011;12351;52.284;9.160;2022-07-29T09:17:52;6.90;;;1.80;;
24206;SDS011;12351;52.284;9.160;2022-07-29T09:20:27;9.57;;;2.13;;
24206;SDS011;12351;52.284;9.160;2022-07-29T09:23:07;6.20;;;1.80;;
24206;SDS011;12351;52.284;9.160;2022-07-29T09:25:35;6.70;;;1.73;;
24206;SDS011;12351;52.284;9.160;2022-07-29T09:28:09;3.47;;;1.67;;
24206;SDS011;12351;52.284;9.160;2022-07-29T09:33:18;9.53;;;2.00;;
24206;SDS011;12351;52.284;9.160;2022-07-29T09:38:25;8.40;;;1.77;;
24206;SDS011;12351;52.284;9.160;2022-07-29T09:40:58;5.63;;;2.00;;
24206;SDS011;12351;52.284;9.160;2022-07-29T09:43:30;6.57;;;2.13;;
24206;SDS011;12351;52.284;9.160;2022-07-29T09:48:42;6.00;;;2.00;;
24206;SDS011;12351;52.284;9.160;2022-07-29T09:51:18;3.53;;;1.70;;
24206;SDS011;12351;52.284;9.160;2022-07-29T09:53:49;7.57;;;2.10;;
24206;SDS011;12351;52.284;9.160;2022-07-29T09:56:37;6.30;;;1.70;;
24206;SDS011;12351;52.284;9.160;2022-07-29T10:01:31;5.13;;;1.93;;
24206;SDS011;12351;52.284;9.160;2022-07-29T10:04:02;8.27;;;1.60;;
24206;SDS011;12351;52.284;9.160;2022-07-29T10:06:35;7.28;;;1.72;;
24206;SDS011;12351;52.284;9.160;2022-07-29T10:09:10;5.47;;;1.70;;
24206;SDS011;12351;52.284;9.160;2022-07-29T10:11:41;5.58;;;1.67;;
24206;SDS011;12351;52.284;9.160;2022-07-29T10:14:17;4.90;;;1.70;;
24206;SDS011;12351;52.284;9.160;2022-07-29T10:16:48;4.93;;;1.47;;
24206;SDS011;12351;52.284;9.160;2022-07-29T10:19:20;6.97;;;1.90;;
24206;SDS011;12351;52.284;9.160;2022-07-29T10:21:56;6.63;;;1.70;;
24206;SDS011;12351;52.284;9.160;2022-07-29T10:24:30;4.17;;;1.90;;
24206;SDS011;12351;52.284;9.160;2022-07-29T10:29:33;8.50;;;1.90;;
24206;SDS011;12351;52.284;9.160;2022-07-29T10:42:36;3.00;;;1.70;;
24206;SDS011;12351;52.284;9.160;2022-07-29T10:45:09;3.27;;;1.80;;
24206;SDS011;12351;52.284;9.160;2022-07-29T10:47:41;4.93;;;1.93;;
24206;SDS011;12351;52.284;9.160;2022-07-29T10:50:15;4.60;;;1.80;;
24206;SDS011;12351;52.284;9.160;2022-07-29T11:00:30;8.77;;;2.57;;
24206;SDS011;12351;52.284;9.160;2022-07-29T11:10:42;9.37;;;2.30;;
24206;SDS011;12351;52.284;9.160;2022-07-29T11:15:55;9.50;;;2.10;;
24206;SDS011;12351;52.284;9.160;2022-07-29T11:18:27;8.70;;;1.83;;
24206;SDS011;12351;52.284;9.160;2022-07-29T11:21:00;13.70;;;1.97;;
24206;SDS011;12351;52.284;9.160;2022-07-29T11:23:32;6.95;;;2.25;;
24206;SDS011;12351;52.284;9.160;2022-07-29T11:28:48;6.73;;;2.00;;
24206;SDS011;12351;52.284;9.160;2022-07-29T11:33:54;9.40;;;2.00;;
24206;SDS011;12351;52.284;9.160;2022-07-29T11:36:26;9.13;;;2.13;;
24206;SDS011;12351;52.284;9.160;2022-07-29T11:41:36;6.50;;;2.50;;
24206;SDS011;12351;52.284;9.160;2022-07-29T11:44:10;9.93;;;2.10;;
24206;SDS011;12351;52.284;9.160;2022-07-29T11:46:44;8.57;;;2.37;;
24206;SDS011;12351;52.284;9.160;2022-07-29T11:49:22;4.30;;;1.93;;
24206;SDS011;12351;52.284;9.160;2022-07-29T11:51:57;13.37;;;2.40;;
24206;SDS011;12351;52.284;9.160;2022-07-29T11:54:30;8.00;;;2.23;;
24206;SDS011;12351;52.284;9.160;2022-07-29T11:57:06;6.50;;;2.30;;
24206;SDS011;12351;52.284;9.160;2022-07-29T12:02:11;9.90;;;2.37;;
24206;SDS011;12351;52.284;9.160;2022-07-29T12:07:15;9.45;;;2.25;;
24206;SDS011;12351;52.284;9.160;2022-07-29T12:09:52;9.53;;;2.57;;
24206;SDS011;12351;52.284;9.160;2022-07-29T12:12:24;6.73;;;2.10;;
24206;SDS011;12351;52.284;9.160;2022-07-29T12:15:09;6.80;;;2.00;;
24206;SDS011;12351;52.284;9.160;2022-07-29T12:17:35;4.47;;;2.13;;
24206;SDS011;12351;52.284;9.160;2022-07-29T12:20:10;9.17;;;2.27;;
24206;SDS011;12351;52.284;9.160;2022-07-29T12:22:42;5.53;;;2.23;;
24206;SDS011;12351;52.284;9.160;2022-07-29T12:25:17;11.90;;;2.40;;
24206;SDS011;12351;52.284;9.160;2022-07-29T12:27:57;9.33;;;2.70;;
24206;SDS011;12351;52.284;9.160;2022-07-29T12:33:09;9.53;;;2.77;;
24206;SDS011;12351;52.284;9.160;2022-07-29T12:35:41;7.87;;;2.70;;
24206;SDS011;12351;52.284;9.160;2022-07-29T12:38:15;6.70;;;2.00;;
24206;SDS011;12351;52.284;9.160;2022-07-29T12:40:46;8.83;;;2.33;;
24206;SDS011;12351;52.284;9.160;2022-07-29T12:43:24;6.10;;;2.30;;
24206;SDS011;12351;52.284;9.160;2022-07-29T12:45:57;5.83;;;2.30;;
24206;SDS011;12351;52.284;9.160;2022-07-29T12:51:02;5.33;;;2.03;;
24206;SDS011;12351;52.284;9.160;2022-07-29T12:53:35;4.00;;;2.20;;
24206;SDS011;12351;52.284;9.160;2022-07-29T12:56:14;9.23;;;2.50;;
24206;SDS011;12351;52.284;9.160;2022-07-29T12:58:42;6.37;;;2.67;;
24206;SDS011;12351;52.284;9.160;2022-07-29T13:01:15;9.10;;;2.40;;
24206;SDS011;12351;52.284;9.160;2022-07-29T13:03:52;5.63;;;2.30;;
24206;SDS011;12351;52.284;9.160;2022-07-29T13:08:59;5.07;;;2.20;;
24206;SDS011;12351;52.284;9.160;2022-07-29T13:11:33;8.40;;;2.30;;
24206;SDS011;12351;52.284;9.160;2022-07-29T13:14:07;4.13;;;2.40;;
24206;SDS011;12351;52.284;9.160;2022-07-29T13:19:18;9.80;;;2.90;;
24206;SDS011;12351;52.284;9.160;2022-07-29T13:21:52;9.30;;;2.50;;
24206;SDS011;12351;52.284;9.160;2022-07-29T13:24:25;7.70;;;3.00;;
24206;SDS011;12351;52.284;9.160;2022-07-29T13:26:56;6.80;;;2.30;;
24206;SDS011;12351;52.284;9.160;2022-07-29T13:29:30;5.87;;;2.60;;
24206;SDS011;12351;52.284;9.160;2022-07-29T13:32:06;7.73;;;2.30;;
24206;SDS011;12351;52.284;9.160;2022-07-29T13:34:40;8.20;;;2.33;;
24206;SDS011;12351;52.284;9.160;2022-07-29T13:37:16;9.97;;;2.47;;
24206;SDS011;12351;52.284;9.160;2022-07-29T13:39:51;5.97;;;2.27;;
24206;SDS011;12351;52.284;9.160;2022-07-29T13:42:24;10.10;;;2.93;;
24206;SDS011;12351;52.284;9.160;2022-07-29T13:45:00;5.67;;;2.47;;
24206;SDS011;12351;52.284;9.160;2022-07-29T13:47:35;5.90;;;2.43;;
24206;SDS011;12351;52.284;9.160;2022-07-29T13:50:09;7.67;;;2.70;;
24206;SDS011;12351;52.284;9.160;2022-07-29T13:52:45;4.57;;;2.63;;
24206;SDS011;12351;52.284;9.160;2022-07-29T13:55:18;10.37;;;2.50;;
24206;SDS011;12351;52.284;9.160;2022-07-29T13:57:54;6.17;;;2.60;;
24206;SDS011;12351;52.284;9.160;2022-07-29T14:00:28;7.90;;;2.90;;
24206;SDS011;12351;52.284;9.160;2022-07-29T14:03:01;6.27;;;2.70;;
24206;SDS011;12351;52.284;9.160;2022-07-29T14:05:35;7.03;;;2.70;;
24206;SDS011;12351;52.284;9.160;2022-07-29T14:08:10;5.17;;;2.20;;
24206;SDS011;12351;52.284;9.160;2022-07-29T14:10:43;8.53;;;2.80;;
24206;SDS011;12351;52.284;9.160;2022-07-29T14:13:19;9.03;;;2.47;;
24206;SDS011;12351;52.284;9.160;2022-07-29T14:15:52;8.97;;;2.77;;
24206;SDS011;12351;52.284;9.160;2022-07-29T14:18:27;8.87;;;2.77;;
24206;SDS011;12351;52.284;9.160;2022-07-29T14:20:59;7.93;;;2.67;;
24206;SDS011;12351;52.284;9.160;2022-07-29T14:23:34;13.40;;;2.70;;
24206;SDS011;12351;52.284;9.160;2022-07-29T14:26:08;6.63;;;2.77;;
24206;SDS011;12351;52.284;9.160;2022-07-29T14:28:39;10.03;;;3.17;;
24206;SDS011;12351;52.284;9.160;2022-07-29T14:31:13;9.60;;;2.90;;
24206;SDS011;12351;52.284;9.160;2022-07-29T14:33:45;5.47;;;2.70;;
24206;SDS011;12351;52.284;9.160;2022-07-29T14:36:19;8.08;;;2.85;;
24206;SDS011;12351;52.284;9.160;2022-07-29T14:38:54;10.83;;;8.53;;
24206;SDS011;12351;52.284;9.160;2022-07-29T14:41:26;10.20;;;3.13;;
24206;SDS011;12351;52.284;9.160;2022-07-29T14:43:58;8.10;;;2.62;;
24206;SDS011;12351;52.284;9.160;2022-07-29T14:46:33;4.53;;;2.90;;
24206;SDS011;12351;52.284;9.160;2022-07-29T14:49:04;7.97;;;2.90;;
24206;SDS011;12351;52.284;9.160;2022-07-29T14:51:41;5.67;;;2.87;;
24206;SDS011;12351;52.284;9.160;2022-07-29T14:54:13;11.57;;;2.73;;
24206;SDS011;12351;52.284;9.160;2022-07-29T14:56:46;8.33;;;3.20;;
24206;SDS011;12351;52.284;9.160;2022-07-29T14:59:17;5.60;;;2.60;;
24206;SDS011;12351;52.284;9.160;2022-07-29T15:01:54;11.90;;;3.20;;
24206;SDS011;12351;52.284;9.160;2022-07-29T15:04:26;7.37;;;3.17;;
24206;SDS011;12351;52.284;9.160;2022-07-29T15:06:59;7.17;;;2.80;;
24206;SDS011;12351;52.284;9.160;2022-07-29T15:09:31;10.17;;;3.30;;
24206;SDS011;12351;52.284;9.160;2022-07-29T15:12:04;11.77;;;3.33;;
24206;SDS011;12351;52.284;9.160;2022-07-29T15:14:36;8.13;;;2.77;;
24206;SDS011;12351;52.284;9.160;2022-07-29T15:17:10;12.18;;;3.33;;
24206;SDS011;12351;52.284;9.160;2022-07-29T15:19:42;9.63;;;3.30;;
24206;SDS011;12351;52.284;9.160;2022-07-29T15:22:15;8.83;;;3.20;;
24206;SDS011;12351;52.284;9.160;2022-07-29T15:24:49;7.77;;;2.90;;
24206;SDS011;12351;52.284;9.160;2022-07-29T15:27:22;11.73;;;3.27;;
24206;SDS011;12351;52.284;9.160;2022-07-29T15:29:56;14.00;;;3.23;;
24206;SDS011;12351;52.284;9.160;2022-07-29T15:32:30;8.80;;;3.57;;
24206;SDS011;12351;52.284;9.160;2022-07-29T15:35:04;9.17;;;3.00;;
24206;SDS011;12351;52.284;9.160;2022-07-29T15:37:38;9.03;;;2.97;;
24206;SDS011;12351;52.284;9.160;2022-07-29T15:40:10;6.77;;;2.70;;
24206;SDS011;12351;52.284;9.160;2022-07-29T15:42:47;9.93;;;2.63;;
24206;SDS011;12351;52.284;9.160;2022-07-29T15:45:20;5.67;;;2.60;;
24206;SDS011;12351;52.284;9.160;2022-07-29T15:47:54;10.97;;;3.00;;
24206;SDS011;12351;52.284;9.160;2022-07-29T15:50:29;4.70;;;2.63;;
24206;SDS011;12351;52.284;9.160;2022-07-29T15:53:01;4.92;;;2.75;;
24206;SDS011;12351;52.284;9.160;2022-07-29T15:55:34;8.87;;;3.03;;
24206;SDS011;12351;52.284;9.160;2022-07-29T15:58:07;9.53;;;3.05;;
24206;SDS011;12351;52.284;9.160;2022-07-29T16:00:41;5.40;;;2.80;;
24206;SDS011;12351;52.284;9.160;2022-07-29T16:03:15;7.60;;;2.63;;
24206;SDS011;12351;52.284;9.160;2022-07-29T16:05:50;6.17;;;2.90;;
24206;SDS011;12351;52.284;9.160;2022-07-29T16:08:23;13.40;;;3.03;;
24206;SDS011;12351;52.284;9.160;2022-07-29T16:10:57;6.50;;;2.90;;
24206;SDS011;12351;52.284;9.160;2022-07-29T16:13:28;10.57;;;2.83;;
24206;SDS011;12351;52.284;9.160;2022-07-29T16:15:58;6.13;;;2.60;;
24206;SDS011;12351;52.284;9.160;2022-07-29T16:18:31;14.43;;;6.30;;
24206;SDS011;12351;52.284;9.160;2022-07-29T16:21:07;9.40;;;2.87;;
24206;SDS011;12351;52.284;9.160;2022-07-29T16:23:43;8.50;;;3.00;;
24206;SDS011;12351;52.284;9.160;2022-07-29T16:26:15;6.40;;;2.80;;
24206;SDS011;12351;52.284;9.160;2022-07-29T16:28:50;10.77;;;3.20;;
24206;SDS011;12351;52.284;9.160;2022-07-29T16:31:20;4.00;;;2.70;;
24206;SDS011;12351;52.284;9.160;2022-07-29T16:33:55;8.57;;;2.70;;
24206;SDS011;12351;52.284;9.160;2022-07-29T16:36:29;12.00;;;2.70;;
24206;SDS011;12351;52.284;9.160;2022-07-29T16:39:05;7.03;;;3.10;;
24206;SDS011;12351;52.284;9.160;2022-07-29T16:41:39;7.43;;;2.77;;
24206;SDS011;12351;52.284;9.160;2022-07-29T16:44:15;8.03;;;2.83;;
24206;SDS011;12351;52.284;9.160;2022-07-29T16:46:47;7.27;;;3.00;;
24206;SDS011;12351;52.284;9.160;2022-07-29T16:49:22;8.77;;;3.17;;
24206;SDS011;12351;52.284;9.160;2022-07-29T16:51:58;7.40;;;3.23;;
24206;SDS011;12351;52.284;9.160;2022-07-29T16:54:30;9.80;;;3.27;;
24206;SDS011;12351;52.284;9.160;2022-07-29T16:59:36;8.58;;;3.20;;
24206;SDS011;12351;52.284;9.160;2022-07-29T17:02:09;7.33;;;2.90;;